createdAt,value
2018-05-14T00:00:55.843Z,47.60
2018-05-14T00:03:23.361Z,47.70
2018-05-14T00:05:50.882Z,48.10
2018-05-14T00:08:18.406Z,48.30
2018-05-14T00:10:45.917Z,48.20
2018-05-14T00:13:13.435Z,48.10
2018-05-14T00:15:41.714Z,48.90
2018-05-14T00:18:09.283Z,48.60
2018-05-14T00:20:36.794Z,48.90
2018-05-14T00:23:04.316Z,48.70
2018-05-14T00:25:31.820Z,49.00
2018-05-14T00:27:59.380Z,49.00
2018-05-14T00:30:26.873Z,49.20
2018-05-14T00:32:55.145Z,49.30
2018-05-14T00:35:22.716Z,49.30
2018-05-14T00:37:50.281Z,49.30
2018-05-14T00:40:17.815Z,49.60
2018-05-14T00:42:45.312Z,49.70
2018-05-14T00:45:12.839Z,49.60
2018-05-14T00:47:40.343Z,49.40
2018-05-14T00:50:07.959Z,49.60
2018-05-14T00:52:35.460Z,49.50
2018-05-14T00:55:14.764Z,49.50
2018-05-14T00:57:43.049Z,49.80
2018-05-14T01:00:10.638Z,49.70
2018-05-14T01:02:38.173Z,49.90
2018-05-14T01:05:06.485Z,50.30
2018-05-14T01:07:33.989Z,50.30
2018-05-14T01:10:01.509Z,50.40
2018-05-14T01:12:29.025Z,50.40
2018-05-14T01:14:57.318Z,50.30
2018-05-14T01:17:24.841Z,50.20
2018-05-14T01:19:52.416Z,50.20
2018-05-14T01:22:20.754Z,50.50
2018-05-14T01:24:53.986Z,50.50
2018-05-14T01:27:21.529Z,50.60
2018-05-14T01:29:49.028Z,50.60
2018-05-14T01:32:16.575Z,50.70
2018-05-14T01:34:44.100Z,50.80
2018-05-14T01:37:11.610Z,50.90
2018-05-14T01:39:39.126Z,51.00
2018-05-14T01:42:06.653Z,51.10
2018-05-14T01:44:34.175Z,51.10
2018-05-14T01:47:02.448Z,51.30
2018-05-14T01:49:30.794Z,51.30
2018-05-14T01:51:58.294Z,51.30
2018-05-14T01:54:25.857Z,51.30
2018-05-14T01:56:54.156Z,51.70
2018-05-14T01:59:21.674Z,51.60
2018-05-14T02:01:49.202Z,51.80
2018-05-14T02:04:16.701Z,51.90
2018-05-14T02:06:45.014Z,52.00
2018-05-14T02:09:12.540Z,52.00
2018-05-14T02:11:40.053Z,52.10
2018-05-14T02:14:07.579Z,52.30
2018-05-14T02:16:35.106Z,52.40
2018-05-14T02:19:02.673Z,52.40
2018-05-14T02:21:30.954Z,52.60
2018-05-14T02:23:59.218Z,52.70
2018-05-14T02:26:27.493Z,52.70
2018-05-14T02:28:55.024Z,52.60
2018-05-14T02:31:22.574Z,52.50
2018-05-14T02:33:50.078Z,52.60
2018-05-14T02:36:18.354Z,52.70
2018-05-14T02:38:46.632Z,53.00
2018-05-14T02:41:14.943Z,52.80
2018-05-14T02:43:42.469Z,52.70
2018-05-14T02:46:09.980Z,52.90
2018-05-14T02:48:37.486Z,52.90
2018-05-14T02:51:05.787Z,53.20
2018-05-14T02:53:33.307Z,53.20
2018-05-14T02:56:00.867Z,52.90
2018-05-14T02:58:28.386Z,53.50
2018-05-14T03:00:55.923Z,53.60
2018-05-14T03:03:24.248Z,53.80
2018-05-14T03:05:52.561Z,54.10
2018-05-14T03:08:20.841Z,54.20
2018-05-14T03:10:48.352Z,54.10
2018-05-14T03:13:15.860Z,54.40
2018-05-14T03:15:44.167Z,54.70
2018-05-14T03:18:11.665Z,54.70
2018-05-14T03:20:39.948Z,55.30
2018-05-14T03:23:07.466Z,55.20
2018-05-14T03:25:35.034Z,55.50
2018-05-14T03:28:02.550Z,55.40
2018-05-14T03:30:30.858Z,55.60
2018-05-14T03:32:58.442Z,55.50
2018-05-14T03:35:25.959Z,55.80
2018-05-14T03:37:54.241Z,55.90
2018-05-14T03:40:22.517Z,56.00
2018-05-14T03:42:50.803Z,56.30
2018-05-14T03:45:18.319Z,56.30
2018-05-14T03:47:45.813Z,56.60
2018-05-14T03:50:13.351Z,56.60
2018-05-14T03:52:40.897Z,56.70
2018-05-14T03:55:08.418Z,56.80
2018-05-14T03:57:35.949Z,56.90
2018-05-14T04:00:16.213Z,57.30
2018-05-14T04:02:55.587Z,57.30
2018-05-14T04:05:28.962Z,57.20
2018-05-14T04:07:56.476Z,57.00
2018-05-14T04:10:24.801Z,57.40
2018-05-14T04:12:52.337Z,57.60
2018-05-14T04:15:19.847Z,57.80
2018-05-14T04:17:47.381Z,57.80
2018-05-14T04:20:14.944Z,58.00
2018-05-14T04:22:42.491Z,58.20
2018-05-14T04:25:10.023Z,58.00
2018-05-14T04:27:37.587Z,58.10
2018-05-14T04:38:50.729Z,58.50
2018-05-14T04:41:18.242Z,58.30
2018-05-14T04:43:46.530Z,57.70
2018-05-14T04:46:14.063Z,57.70
2018-05-14T04:48:41.582Z,58.20
2018-05-14T04:51:09.125Z,57.80
2018-05-14T04:53:36.657Z,57.70
2018-05-14T04:56:04.210Z,58.10
2018-05-14T04:58:32.546Z,58.50
2018-05-14T05:01:00.067Z,58.40
2018-05-14T05:03:27.661Z,58.40
2018-05-14T05:05:55.182Z,58.50
2018-05-14T05:08:22.697Z,58.50
2018-05-14T05:10:50.219Z,59.10
2018-05-14T05:13:17.785Z,58.90
2018-05-14T05:15:45.318Z,59.00
2018-05-14T05:18:13.668Z,59.10
2018-05-14T05:20:41.233Z,59.00
2018-05-14T05:23:08.813Z,59.20
2018-05-14T05:25:36.452Z,59.30
2018-05-14T05:28:03.975Z,59.10
2018-05-14T05:30:31.520Z,59.30
2018-05-14T05:32:59.063Z,59.30
2018-05-14T05:35:26.605Z,59.40
2018-05-14T05:37:55.036Z,59.30
2018-05-14T05:40:23.172Z,59.40
2018-05-14T05:42:50.724Z,59.40
2018-05-14T05:45:18.272Z,59.60
2018-05-14T05:47:46.573Z,59.20
2018-05-14T05:50:14.853Z,59.70
2018-05-14T05:52:42.357Z,59.70
2018-05-14T05:55:11.558Z,59.70
2018-05-14T05:57:39.291Z,59.60
2018-05-14T06:00:06.831Z,60.00
2018-05-14T06:02:35.117Z,59.60
2018-05-14T06:05:02.663Z,59.60
2018-05-14T06:07:30.978Z,59.30
2018-05-14T06:09:58.517Z,59.30
2018-05-14T06:12:26.025Z,59.60
2018-05-14T06:14:58.176Z,59.60
2018-05-14T06:17:25.718Z,59.70
2018-05-14T06:19:53.284Z,59.40
2018-05-14T06:22:20.863Z,59.20
2018-05-14T06:24:48.397Z,59.30
2018-05-14T06:27:15.914Z,59.10
2018-05-14T06:29:44.237Z,60.00
2018-05-14T06:32:11.748Z,59.60
2018-05-14T06:34:39.271Z,59.60
2018-05-14T06:37:06.793Z,59.60
2018-05-14T06:39:34.324Z,59.70
2018-05-14T06:42:01.862Z,59.60
2018-05-14T06:44:29.382Z,59.70
2018-05-14T06:46:56.912Z,59.80
2018-05-14T06:49:24.461Z,59.50
2018-05-14T06:51:51.984Z,59.10
2018-05-14T06:54:19.534Z,59.30
2018-05-14T06:56:47.091Z,59.10
2018-05-14T06:59:14.624Z,58.90
2018-05-14T07:01:42.288Z,59.00
2018-05-14T07:04:09.868Z,58.60
2018-05-14T07:06:37.437Z,58.80
2018-05-14T07:09:05.779Z,59.00
2018-05-14T07:11:33.410Z,58.90
2018-05-14T07:14:00.900Z,58.90
2018-05-14T07:16:29.249Z,58.80
2018-05-14T07:18:56.763Z,58.70
2018-05-14T07:21:24.344Z,58.70
2018-05-14T07:23:51.934Z,58.50
2018-05-14T07:26:19.454Z,58.70
2018-05-14T07:28:47.020Z,58.90
2018-05-14T07:31:14.567Z,58.30
2018-05-14T07:33:42.156Z,58.70
2018-05-14T07:36:09.678Z,58.90
2018-05-14T07:38:37.236Z,58.60
2018-05-14T07:41:04.755Z,58.60
2018-05-14T07:43:32.269Z,58.50
2018-05-14T07:45:59.995Z,58.40
2018-05-14T07:48:27.491Z,58.60
2018-05-14T07:50:55.033Z,58.50
2018-05-14T07:53:22.557Z,57.40
2018-05-14T07:55:50.070Z,57.10
2018-05-14T07:58:17.586Z,56.70
2018-05-14T08:00:45.114Z,56.60
2018-05-14T08:03:12.625Z,56.80
2018-05-14T08:05:40.197Z,56.00
2018-05-14T08:08:07.749Z,55.90
2018-05-14T08:10:35.294Z,55.90
2018-05-14T08:13:03.592Z,55.20
2018-05-14T08:15:31.145Z,55.20
2018-05-14T08:17:58.656Z,55.30
2018-05-14T08:20:26.160Z,54.60
2018-05-14T08:22:54.494Z,55.10
2018-05-14T08:25:22.034Z,55.00
2018-05-14T08:27:49.542Z,55.00
2018-05-14T08:30:17.142Z,53.90
2018-05-14T08:32:44.656Z,52.90
2018-05-14T08:35:12.934Z,52.60
2018-05-14T08:37:40.453Z,52.60
2018-05-14T08:40:07.990Z,52.30
2018-05-14T08:42:35.514Z,51.50
2018-05-14T08:45:03.806Z,50.50
2018-05-14T08:47:32.151Z,49.40
2018-05-14T08:49:59.693Z,49.40
2018-05-14T08:52:27.215Z,49.50
2018-05-14T08:54:54.852Z,49.20
2018-05-14T08:57:22.374Z,49.40
2018-05-14T08:59:49.911Z,49.70
2018-05-14T09:02:17.416Z,49.70
2018-05-14T09:04:44.978Z,48.60
2018-05-14T09:07:12.497Z,46.80
2018-05-14T09:09:40.014Z,46.90
2018-05-14T09:12:08.317Z,47.10
2018-05-14T09:14:35.900Z,47.10
2018-05-14T09:17:03.360Z,47.00
2018-05-14T09:19:30.935Z,46.30
2018-05-14T09:21:58.450Z,46.50
2018-05-14T09:24:25.961Z,46.60
2018-05-14T09:26:53.506Z,46.80
2018-05-14T09:29:21.024Z,46.10
2018-05-14T09:31:48.565Z,45.70
2018-05-14T09:34:16.864Z,45.60
2018-05-14T09:36:45.155Z,44.80
2018-05-14T09:39:12.744Z,44.80
2018-05-14T09:41:40.390Z,44.40
2018-05-14T09:44:13.453Z,43.70
2018-05-14T09:46:41.112Z,43.60
2018-05-14T09:49:15.498Z,43.30
2018-05-14T09:51:43.133Z,43.30
2018-05-14T09:54:10.653Z,43.40
2018-05-14T09:56:38.952Z,42.80
2018-05-14T09:59:06.481Z,42.90
2018-05-14T10:01:33.998Z,42.40
2018-05-14T10:04:01.541Z,42.10
2018-05-14T10:06:29.073Z,42.60
2018-05-14T10:08:56.575Z,43.00
2018-05-14T10:11:24.104Z,41.80
2018-05-14T10:13:51.646Z,42.40
2018-05-14T10:16:19.180Z,42.10
2018-05-14T10:18:46.784Z,39.70
2018-05-14T10:21:14.262Z,37.80
2018-05-14T10:23:41.772Z,36.50
2018-05-14T10:26:09.311Z,35.20
2018-05-14T10:28:36.866Z,34.70
2018-05-14T10:31:04.380Z,33.80
2018-05-14T10:33:31.926Z,33.50
2018-05-14T10:35:59.454Z,31.50
2018-05-14T10:38:27.011Z,30.30
2018-05-14T10:40:54.497Z,28.40
2018-05-14T10:43:22.030Z,27.70
2018-05-14T10:45:49.604Z,26.40
2018-05-14T10:48:17.352Z,25.00
2018-05-14T10:50:44.897Z,24.80
2018-05-14T10:53:12.431Z,23.80
2018-05-14T10:55:39.928Z,22.20
2018-05-14T10:58:07.457Z,22.50
2018-05-14T11:00:35.002Z,22.80
2018-05-14T11:03:02.518Z,22.80
2018-05-14T11:05:30.031Z,22.50
2018-05-14T11:07:57.574Z,21.50
2018-05-14T11:10:25.115Z,20.40
2018-05-14T11:12:53.407Z,20.50
2018-05-14T11:15:21.704Z,19.60
2018-05-14T11:17:49.240Z,19.60
2018-05-14T11:20:16.771Z,19.20
2018-05-14T11:22:44.301Z,19.00
2018-05-14T11:25:11.883Z,19.30
2018-05-14T11:27:39.434Z,19.00
2018-05-14T11:30:06.979Z,18.70
2018-05-14T11:32:34.502Z,19.00
2018-05-14T11:35:02.837Z,18.20
2018-05-14T11:37:30.376Z,18.20
2018-05-14T11:39:57.902Z,17.70
2018-05-14T11:42:26.256Z,18.20
2018-05-14T11:44:53.808Z,18.20
2018-05-14T11:47:21.361Z,17.50
2018-05-14T11:49:48.882Z,17.30
2018-05-14T11:52:16.526Z,16.90
2018-05-14T11:54:44.174Z,17.30
2018-05-14T11:57:11.651Z,18.50
2018-05-14T11:59:39.192Z,18.90
2018-05-14T12:02:07.476Z,18.40
2018-05-14T12:04:35.754Z,18.20
2018-05-14T12:07:04.059Z,17.90
2018-05-14T12:09:31.621Z,17.90
2018-05-14T12:11:59.154Z,18.00
2018-05-14T12:14:27.440Z,19.10
2018-05-14T12:16:54.950Z,19.10
2018-05-14T12:19:22.456Z,19.00
2018-05-14T12:21:49.997Z,19.60
2018-05-14T12:24:18.347Z,19.80
2018-05-14T12:26:45.928Z,19.70
2018-05-14T12:29:13.463Z,19.80
2018-05-14T12:31:40.990Z,20.20
2018-05-14T12:34:08.591Z,20.50
2018-05-14T12:36:36.120Z,20.60
2018-05-14T12:39:03.753Z,20.20
2018-05-14T12:41:31.329Z,20.90
2018-05-14T12:43:58.865Z,20.80
2018-05-14T12:46:26.413Z,20.70
2018-05-14T12:48:53.947Z,21.20
2018-05-14T12:51:21.465Z,21.80
2018-05-14T12:53:49.031Z,22.00
2018-05-14T12:56:16.599Z,22.60
2018-05-14T12:58:44.128Z,22.90
2018-05-14T13:01:12.419Z,22.90
2018-05-14T13:03:40.050Z,22.80
2018-05-14T13:06:07.663Z,23.00
2018-05-14T13:08:35.235Z,23.50
2018-05-14T13:11:02.740Z,23.30
2018-05-14T13:13:30.263Z,23.80
2018-05-14T13:15:58.561Z,24.70
2018-05-14T13:18:26.103Z,24.70
2018-05-14T13:20:53.812Z,24.80
2018-05-14T13:23:22.101Z,25.20
2018-05-14T13:25:49.615Z,25.20
2018-05-14T13:28:17.138Z,25.50
2018-05-14T13:30:44.664Z,25.90
2018-05-14T13:33:12.207Z,26.20
2018-05-14T13:35:39.736Z,26.30
2018-05-14T13:38:07.405Z,26.20
2018-05-14T13:40:34.841Z,26.00
2018-05-14T13:43:02.441Z,25.60
2018-05-14T13:45:29.980Z,25.80
2018-05-14T13:47:57.561Z,26.30
2018-05-14T13:50:25.086Z,26.00
2018-05-14T13:52:52.599Z,25.60
2018-05-14T13:55:20.188Z,25.50
2018-05-14T13:57:47.752Z,26.00
2018-05-14T14:00:15.287Z,26.40
2018-05-14T14:02:43.587Z,26.20
2018-05-14T14:05:11.119Z,26.20
2018-05-14T14:07:38.674Z,26.30
2018-05-14T14:10:06.231Z,26.80
2018-05-14T14:12:33.769Z,27.10
2018-05-14T14:15:01.369Z,27.70
2018-05-14T14:17:28.921Z,27.00
2018-05-14T14:19:57.217Z,27.70
2018-05-14T14:22:24.749Z,27.60
2018-05-14T14:24:52.317Z,27.60
2018-05-14T14:27:20.642Z,28.20
2018-05-14T14:29:48.220Z,28.10
2018-05-14T14:32:15.720Z,27.50
2018-05-14T14:34:44.013Z,27.30
2018-05-14T14:37:11.632Z,27.30
2018-05-14T14:39:39.184Z,27.50
2018-05-14T14:42:06.798Z,27.70
2018-05-14T14:44:34.297Z,27.20
2018-05-14T14:47:01.816Z,27.70
2018-05-14T14:49:29.347Z,27.60
2018-05-14T14:51:56.932Z,27.60
2018-05-14T14:54:24.539Z,28.10
2018-05-14T14:56:52.060Z,28.40
2018-05-14T14:59:19.630Z,28.50
2018-05-14T15:01:47.158Z,28.20
2018-05-14T15:04:14.714Z,28.20
2018-05-14T15:06:43.116Z,29.00
2018-05-14T15:09:10.691Z,28.50
2018-05-14T15:11:38.193Z,28.70
2018-05-14T15:14:05.695Z,28.70
2018-05-14T15:16:33.237Z,29.10
2018-05-14T15:19:01.527Z,28.30
2018-05-14T15:21:29.091Z,28.20
2018-05-14T15:23:57.384Z,28.30
2018-05-14T15:26:24.901Z,28.30
2018-05-14T15:28:53.178Z,28.40
2018-05-14T15:31:21.537Z,28.20
2018-05-14T15:33:49.079Z,28.20
2018-05-14T15:36:16.606Z,28.40
2018-05-14T15:38:44.131Z,27.90
2018-05-14T15:41:11.685Z,27.40
2018-05-14T15:43:39.242Z,27.30
2018-05-14T15:46:06.954Z,27.10
2018-05-14T15:48:34.571Z,26.80
2018-05-14T15:51:02.078Z,27.60
2018-05-14T15:53:29.737Z,27.30
2018-05-14T15:55:57.342Z,27.50
2018-05-14T15:58:24.877Z,27.30
2018-05-14T16:00:52.426Z,27.40
2018-05-14T16:03:20.167Z,27.40
2018-05-14T16:05:47.716Z,26.80
2018-05-14T16:08:16.006Z,27.30
2018-05-14T16:10:44.317Z,27.60
2018-05-14T16:13:11.835Z,27.50
2018-05-14T16:15:39.371Z,27.80
2018-05-14T16:18:06.897Z,28.00
2018-05-14T16:20:34.409Z,28.70
2018-05-14T16:23:01.989Z,27.80
2018-05-14T16:25:29.613Z,27.80
2018-05-14T16:27:57.177Z,27.90
2018-05-14T16:30:24.852Z,27.80
2018-05-14T16:32:52.467Z,27.70
2018-05-14T16:35:19.985Z,27.60
2018-05-14T16:37:47.523Z,27.50
2018-05-14T16:40:15.037Z,27.50
2018-05-14T16:42:42.639Z,27.40
2018-05-14T16:45:10.170Z,27.90
2018-05-14T16:47:37.785Z,27.80
2018-05-14T16:50:06.197Z,28.40
2018-05-14T16:52:33.756Z,27.80
2018-05-14T16:55:01.680Z,27.70
2018-05-14T16:57:29.223Z,27.30
2018-05-14T16:59:57.001Z,27.90
2018-05-14T17:02:24.589Z,27.90
2018-05-14T17:04:52.947Z,28.20
2018-05-14T17:07:20.562Z,28.20
2018-05-14T17:09:48.078Z,28.30
2018-05-14T17:12:15.600Z,28.50
2018-05-14T17:14:43.149Z,29.20
2018-05-14T17:17:10.781Z,28.50
2018-05-14T17:19:38.321Z,28.80
2018-05-14T17:22:05.956Z,28.80
2018-05-14T17:24:33.524Z,28.80
2018-05-14T17:27:01.888Z,29.20
2018-05-14T17:29:29.553Z,29.00
2018-05-14T17:31:57.094Z,29.10
2018-05-14T17:34:25.479Z,29.70
2018-05-14T17:36:53.040Z,29.50
2018-05-14T17:39:20.611Z,29.90
2018-05-14T17:41:48.353Z,30.10
2018-05-14T17:44:15.870Z,30.30
2018-05-14T17:46:43.408Z,30.60
2018-05-14T17:49:10.930Z,30.80
2018-05-14T17:51:39.301Z,31.00
2018-05-14T17:54:06.888Z,31.00
2018-05-14T17:56:34.430Z,31.70
2018-05-14T17:59:02.015Z,31.30
2018-05-14T18:01:29.552Z,31.30
2018-05-14T18:03:57.091Z,31.60
2018-05-14T18:06:24.613Z,31.50
2018-05-14T18:08:52.903Z,32.20
2018-05-14T18:11:21.199Z,32.00
2018-05-14T18:13:48.895Z,32.00
2018-05-14T18:16:16.502Z,32.10
2018-05-14T18:18:44.017Z,32.30
2018-05-14T18:21:12.864Z,31.90
2018-05-14T18:23:46.748Z,32.50
2018-05-14T18:26:18.093Z,32.30
2018-05-14T18:28:49.476Z,32.60
2018-05-14T18:31:22.815Z,32.60
2018-05-14T18:33:50.331Z,32.90
2018-05-14T18:36:17.853Z,33.00
2018-05-14T18:38:45.406Z,33.20
2018-05-14T18:41:12.949Z,33.40
2018-05-14T18:43:40.594Z,33.40
2018-05-14T18:46:08.131Z,33.80
2018-05-14T18:48:36.418Z,34.00
2018-05-14T18:51:03.936Z,34.00
2018-05-14T18:53:31.563Z,34.00
2018-05-14T18:55:59.191Z,34.10
2018-05-14T18:58:26.750Z,34.40
2018-05-14T19:00:54.309Z,34.50
2018-05-14T19:03:22.666Z,34.70
2018-05-14T19:05:50.243Z,34.60
2018-05-14T19:08:18.582Z,34.50
2018-05-14T19:10:51.850Z,34.50
2018-05-14T19:13:19.408Z,34.90
2018-05-14T19:15:52.661Z,34.70
2018-05-14T19:18:20.230Z,34.60
2018-05-14T19:20:48.584Z,35.10
2018-05-14T19:23:21.877Z,35.10
2018-05-14T19:25:49.412Z,35.20
2018-05-14T19:28:22.504Z,35.50
2018-05-14T19:30:50.057Z,35.40
2018-05-14T19:33:23.284Z,35.30
2018-05-14T19:35:56.479Z,35.60
2018-05-14T19:38:24.111Z,35.40
2018-05-14T19:40:51.686Z,35.40
2018-05-14T19:43:19.215Z,35.40
2018-05-14T19:45:46.772Z,35.40
2018-05-14T19:48:14.380Z,35.60
2018-05-14T19:50:41.930Z,36.30
2018-05-14T19:53:09.512Z,35.70
2018-05-14T19:55:37.204Z,36.20
2018-05-14T19:58:04.792Z,36.60
2018-05-14T20:00:32.320Z,36.40
2018-05-14T20:02:59.862Z,36.50
2018-05-14T20:05:28.172Z,36.40
2018-05-14T20:07:55.697Z,36.10
2018-05-14T20:10:23.210Z,36.20
2018-05-14T20:12:50.793Z,36.50
2018-05-14T20:15:18.393Z,36.90
2018-05-14T20:17:46.689Z,36.60
2018-05-14T20:20:14.373Z,36.60
2018-05-14T20:22:41.843Z,37.70
2018-05-14T20:25:09.368Z,37.10
2018-05-14T20:27:36.989Z,36.70
2018-05-14T20:30:04.594Z,37.30
2018-05-14T20:32:32.161Z,37.40
2018-05-14T20:34:59.708Z,37.40
2018-05-14T20:37:27.311Z,37.60
2018-05-14T20:39:54.824Z,37.50
2018-05-14T20:42:23.226Z,37.60
2018-05-14T20:44:50.737Z,37.60
2018-05-14T20:47:19.065Z,37.90
2018-05-14T20:49:46.620Z,37.90
2018-05-14T20:52:14.183Z,38.20
2018-05-14T20:54:41.774Z,38.20
2018-05-14T20:57:09.324Z,38.40
2018-05-14T20:59:37.025Z,39.00
2018-05-14T21:02:04.585Z,39.30
2018-05-14T21:04:33.017Z,39.70
2018-05-14T21:07:00.550Z,39.60
2018-05-14T21:09:28.097Z,39.90
2018-05-14T21:11:56.452Z,39.90
2018-05-14T21:14:24.009Z,39.90
2018-05-14T21:16:51.521Z,40.00
2018-05-14T21:19:19.106Z,40.70
2018-05-14T21:21:46.643Z,40.00
2018-05-14T21:24:14.194Z,40.00
2018-05-14T21:26:41.792Z,40.10
2018-05-14T21:29:09.317Z,40.50
2018-05-14T21:31:36.859Z,40.40
2018-05-14T21:34:04.430Z,40.60
2018-05-14T21:36:31.960Z,40.70
2018-05-14T21:38:59.491Z,40.90
2018-05-14T21:41:27.064Z,41.00
2018-05-14T21:43:54.662Z,41.00
2018-05-14T21:46:22.207Z,40.80
2018-05-14T21:48:49.872Z,41.20
2018-05-14T21:51:17.427Z,41.40
2018-05-14T21:53:45.800Z,41.40
2018-05-14T21:56:13.315Z,41.40
2018-05-14T21:58:40.859Z,41.40
2018-05-14T22:01:08.438Z,41.10
2018-05-14T22:03:35.957Z,41.20
2018-05-14T22:06:04.253Z,41.50
2018-05-14T22:08:31.787Z,41.40
2018-05-14T22:10:59.309Z,41.80
2018-05-14T22:13:26.849Z,42.20
2018-05-14T22:15:54.350Z,41.70
2018-05-14T22:18:21.886Z,42.00
2018-05-14T22:20:49.407Z,41.90
2018-05-14T22:23:16.944Z,42.00
2018-05-14T22:25:44.477Z,42.10
2018-05-14T22:28:11.999Z,42.10
2018-05-14T22:30:39.543Z,42.10
2018-05-14T22:33:07.122Z,42.50
2018-05-14T22:35:34.637Z,42.50
2018-05-14T22:38:02.216Z,42.70
2018-05-14T22:40:29.760Z,42.70
2018-05-14T22:42:57.285Z,42.80
2018-05-14T22:45:24.837Z,42.70
2018-05-14T22:47:52.361Z,43.00
2018-05-14T22:50:19.899Z,43.00
2018-05-14T22:52:48.176Z,43.90
2018-05-14T22:55:15.756Z,43.50
2018-05-14T22:57:43.280Z,43.50
2018-05-14T23:00:10.795Z,43.40
2018-05-14T23:02:38.348Z,43.70
2018-05-14T23:05:05.876Z,43.80
2018-05-14T23:07:34.191Z,44.00
2018-05-14T23:10:01.729Z,44.00
2018-05-14T23:12:29.245Z,44.00
2018-05-14T23:14:56.807Z,45.00
2018-05-14T23:17:24.344Z,44.30
2018-05-14T23:19:51.867Z,44.60
2018-05-14T23:22:19.421Z,44.80
2018-05-14T23:24:46.944Z,44.70
2018-05-14T23:27:14.493Z,44.60
2018-05-14T23:29:41.998Z,44.80
2018-05-14T23:32:09.562Z,44.90
2018-05-14T23:34:37.841Z,45.20
2018-05-14T23:37:06.253Z,45.30
2018-05-14T23:39:33.806Z,45.30
2018-05-14T23:42:01.312Z,46.00
2018-05-14T23:44:28.902Z,45.60
2018-05-14T23:46:57.219Z,45.80
2018-05-14T23:49:24.749Z,45.80
2018-05-14T23:51:52.301Z,45.90
2018-05-14T23:54:20.576Z,46.20
2018-05-14T23:56:48.867Z,46.30
2018-05-14T23:59:16.419Z,46.30
